Terminal Aerodrome Forecast
Issued by NWS Sioux Falls, SD

Home | Current Version | Previous Version | Text Only | Print | Product List | Glossary On
Versions: 1 2 3 4 5 6 7 8 9 10 11 12 13 14 15 16 17 18 19 20
082
FTUS43 KFSD 232324
TAFHON
TAF
KHON 232324Z 2400/2424 02009KT P6SM SHRA VCTS OVC008CB
     FM240600 05006KT 3SM SHRA BR OVC008
     FM241300 12004KT 3SM SHRA BR VCTS OVC008CB
     FM241600 22007KT 6SM SHRA OVC015
     FM242100 31007KT 6SM SHRA OVC008=

USA.gov is the U.S. government's official web portal to all federal, state and local government web resources and services.